Mimbres, New Mexico
Current Conditions -  °F | °C
As of 2:35 AM on Thursday 18 Dec 2014 (Local Time) from KSVC Reporting Station
Overcast Overcast  
Wind Chill: 29°   Ceiling: 6000
Heat Index: 36°   Visibility: 10mi
Dew Point: 34°   Wind: 9mph
Humidity: 93%   Direction: 310°NW
Pressure: 30.16"   Gusts: NA
Location:  32.86°N, 107.98°W
Report Text: KSVC 180935Z AUTO 31008KT 10SM SCT031 SCT039 OVC060 02/01 A3016 RMK AO2
Loading
Personal Weather Stations






























Interactive Weather Map New forecast layout! Learn more

10-Day Weather Forecast

Advertisements
Track Severe Weather on mobile